sensor_id;sensor_type;location;lat;lon;timestamp;P1;durP1;ratioP1;P2;durP2;ratioP2
86011;SDS011;76591;42.170;27.850;2024-03-23T00:54:19;16.60;;;5.50;;
86011;SDS011;76591;42.170;27.850;2024-03-23T00:56:45;9.63;;;4.57;;
86011;SDS011;76591;42.170;27.850;2024-03-23T00:59:11;10.87;;;4.90;;
86011;SDS011;76591;42.170;27.850;2024-03-23T01:01:36;9.23;;;4.47;;
86011;SDS011;76591;42.170;27.850;2024-03-23T01:04:02;9.20;;;4.27;;
86011;SDS011;76591;42.170;27.850;2024-03-23T01:06:28;12.30;;;5.27;;
86011;SDS011;76591;42.170;27.850;2024-03-23T01:08:54;16.00;;;5.23;;
86011;SDS011;76591;42.170;27.850;2024-03-23T01:11:19;15.80;;;6.70;;
86011;SDS011;76591;42.170;27.850;2024-03-23T01:13:45;20.53;;;6.43;;
86011;SDS011;76591;42.170;27.850;2024-03-23T01:16:10;16.60;;;5.47;;
86011;SDS011;76591;42.170;27.850;2024-03-23T01:18:36;20.53;;;8.73;;
86011;SDS011;76591;42.170;27.850;2024-03-23T01:21:02;25.53;;;9.40;;
86011;SDS011;76591;42.170;27.850;2024-03-23T01:23:27;29.03;;;8.70;;
86011;SDS011;76591;42.170;27.850;2024-03-23T01:25:53;31.10;;;10.20;;
86011;SDS011;76591;42.170;27.850;2024-03-23T01:28:19;26.97;;;9.87;;
86011;SDS011;76591;42.170;27.850;2024-03-23T01:30:46;24.00;;;9.87;;
86011;SDS011;76591;42.170;27.850;2024-03-23T01:33:11;22.83;;;9.27;;
86011;SDS011;76591;42.170;27.850;2024-03-23T01:35:37;26.87;;;9.97;;
86011;SDS011;76591;42.170;27.850;2024-03-23T01:38:03;24.23;;;9.83;;
86011;SDS011;76591;42.170;27.850;2024-03-23T01:40:29;23.77;;;8.30;;
86011;SDS011;76591;42.170;27.850;2024-03-23T01:42:58;23.83;;;8.17;;
86011;SDS011;76591;42.170;27.850;2024-03-23T01:45:31;31.40;;;9.47;;
86011;SDS011;76591;42.170;27.850;2024-03-23T01:47:57;26.87;;;11.73;;
86011;SDS011;76591;42.170;27.850;2024-03-23T01:50:23;17.80;;;7.30;;
86011;SDS011;76591;42.170;27.850;2024-03-23T01:52:50;18.93;;;8.33;;
86011;SDS011;76591;42.170;27.850;2024-03-23T01:55:16;16.87;;;7.47;;
86011;SDS011;76591;42.170;27.850;2024-03-23T01:57:42;19.67;;;7.30;;
86011;SDS011;76591;42.170;27.850;2024-03-23T02:00:07;22.50;;;6.67;;
86011;SDS011;76591;42.170;27.850;2024-03-23T02:02:35;19.93;;;8.53;;
86011;SDS011;76591;42.170;27.850;2024-03-23T02:05:00;21.80;;;8.97;;
86011;SDS011;76591;42.170;27.850;2024-03-23T02:07:26;28.03;;;10.00;;
86011;SDS011;76591;42.170;27.850;2024-03-23T02:09:52;27.53;;;12.03;;
86011;SDS011;76591;42.170;27.850;2024-03-23T02:12:19;39.87;;;11.50;;
86011;SDS011;76591;42.170;27.850;2024-03-23T02:14:45;43.37;;;15.63;;
86011;SDS011;76591;42.170;27.850;2024-03-23T02:17:10;86.57;;;20.17;;
86011;SDS011;76591;42.170;27.850;2024-03-23T02:19:36;49.27;;;15.60;;
86011;SDS011;76591;42.170;27.850;2024-03-23T02:22:01;78.20;;;21.73;;
86011;SDS011;76591;42.170;27.850;2024-03-23T02:24:29;101.30;;;27.57;;
86011;SDS011;76591;42.170;27.850;2024-03-23T02:26:54;47.03;;;16.70;;
86011;SDS011;76591;42.170;27.850;2024-03-23T02:29:20;36.23;;;13.67;;
86011;SDS011;76591;42.170;27.850;2024-03-23T02:31:45;26.77;;;10.93;;
86011;SDS011;76591;42.170;27.850;2024-03-23T02:34:11;24.10;;;8.77;;
86011;SDS011;76591;42.170;27.850;2024-03-23T02:36:37;16.20;;;7.43;;
86011;SDS011;76591;42.170;27.850;2024-03-23T02:39:02;15.03;;;6.37;;
86011;SDS011;76591;42.170;27.850;2024-03-23T02:41:28;15.13;;;5.63;;
86011;SDS011;76591;42.170;27.850;2024-03-23T02:43:53;7.30;;;3.73;;
86011;SDS011;76591;42.170;27.850;2024-03-23T02:46:19;23.17;;;6.20;;
86011;SDS011;76591;42.170;27.850;2024-03-23T02:48:44;20.13;;;7.87;;
86011;SDS011;76591;42.170;27.850;2024-03-23T02:51:10;19.10;;;7.13;;
86011;SDS011;76591;42.170;27.850;2024-03-23T02:53:36;20.97;;;8.17;;
86011;SDS011;76591;42.170;27.850;2024-03-23T02:56:01;17.00;;;7.47;;
86011;SDS011;76591;42.170;27.850;2024-03-23T02:58:27;16.57;;;6.57;;
86011;SDS011;76591;42.170;27.850;2024-03-23T03:00:53;18.87;;;8.30;;
86011;SDS011;76591;42.170;27.850;2024-03-23T03:03:18;24.50;;;9.63;;
86011;SDS011;76591;42.170;27.850;2024-03-23T03:05:44;14.63;;;6.97;;
86011;SDS011;76591;42.170;27.850;2024-03-23T03:08:09;11.07;;;6.70;;
86011;SDS011;76591;42.170;27.850;2024-03-23T03:10:35;11.07;;;5.37;;
86011;SDS011;76591;42.170;27.850;2024-03-23T03:13:01;14.87;;;6.60;;
86011;SDS011;76591;42.170;27.850;2024-03-23T03:15:27;9.47;;;4.57;;
86011;SDS011;76591;42.170;27.850;2024-03-23T03:17:53;14.90;;;6.63;;
86011;SDS011;76591;42.170;27.850;2024-03-23T03:20:19;18.50;;;7.60;;
86011;SDS011;76591;42.170;27.850;2024-03-23T03:22:47;14.20;;;6.37;;
86011;SDS011;76591;42.170;27.850;2024-03-23T03:25:12;14.53;;;7.23;;
86011;SDS011;76591;42.170;27.850;2024-03-23T03:27:38;14.33;;;7.17;;
86011;SDS011;76591;42.170;27.850;2024-03-23T03:30:04;19.10;;;7.73;;
86011;SDS011;76591;42.170;27.850;2024-03-23T03:32:32;16.33;;;6.27;;
86011;SDS011;76591;42.170;27.850;2024-03-23T03:34:58;15.67;;;7.03;;
86011;SDS011;76591;42.170;27.850;2024-03-23T03:37:24;13.93;;;5.37;;
86011;SDS011;76591;42.170;27.850;2024-03-23T03:39:49;9.13;;;5.10;;
86011;SDS011;76591;42.170;27.850;2024-03-23T03:42:15;9.83;;;4.70;;
86011;SDS011;76591;42.170;27.850;2024-03-23T03:44:40;7.63;;;4.53;;
86011;SDS011;76591;42.170;27.850;2024-03-23T03:47:06;10.77;;;4.43;;
86011;SDS011;76591;42.170;27.850;2024-03-23T03:49:32;7.00;;;4.37;;
86011;SDS011;76591;42.170;27.850;2024-03-23T03:51:57;10.93;;;4.30;;
86011;SDS011;76591;42.170;27.850;2024-03-23T03:54:23;10.57;;;4.63;;
86011;SDS011;76591;42.170;27.850;2024-03-23T03:56:49;13.77;;;6.90;;
86011;SDS011;76591;42.170;27.850;2024-03-23T03:59:15;11.70;;;5.70;;
86011;SDS011;76591;42.170;27.850;2024-03-23T04:01:40;11.93;;;5.60;;
86011;SDS011;76591;42.170;27.850;2024-03-23T04:04:06;13.57;;;5.63;;
86011;SDS011;76591;42.170;27.850;2024-03-23T04:06:32;9.23;;;5.03;;
86011;SDS011;76591;42.170;27.850;2024-03-23T04:08:58;10.40;;;4.97;;
86011;SDS011;76591;42.170;27.850;2024-03-23T04:11:24;9.23;;;3.60;;
86011;SDS011;76591;42.170;27.850;2024-03-23T04:13:49;8.57;;;3.33;;
86011;SDS011;76591;42.170;27.850;2024-03-23T04:16:26;12.43;;;3.03;;
86011;SDS011;76591;42.170;27.850;2024-03-23T04:18:55;6.30;;;3.37;;
86011;SDS011;76591;42.170;27.850;2024-03-23T04:21:24;11.17;;;4.03;;
86011;SDS011;76591;42.170;27.850;2024-03-23T04:23:49;10.17;;;4.53;;
86011;SDS011;76591;42.170;27.850;2024-03-23T04:26:15;9.17;;;4.97;;
86011;SDS011;76591;42.170;27.850;2024-03-23T04:28:41;28.57;;;9.00;;
86011;SDS011;76591;42.170;27.850;2024-03-23T04:31:08;39.43;;;13.70;;
86011;SDS011;76591;42.170;27.850;2024-03-23T04:33:34;58.33;;;19.83;;
86011;SDS011;76591;42.170;27.850;2024-03-23T04:35:59;39.73;;;14.23;;
86011;SDS011;76591;42.170;27.850;2024-03-23T04:38:25;35.97;;;14.13;;
86011;SDS011;76591;42.170;27.850;2024-03-23T04:40:55;37.47;;;12.80;;
86011;SDS011;76591;42.170;27.850;2024-03-23T04:43:24;25.53;;;10.17;;
86011;SDS011;76591;42.170;27.850;2024-03-23T04:45:51;20.10;;;8.73;;
86011;SDS011;76591;42.170;27.850;2024-03-23T04:48:19;19.73;;;8.47;;
86011;SDS011;76591;42.170;27.850;2024-03-23T04:50:47;36.73;;;13.10;;
86011;SDS011;76591;42.170;27.850;2024-03-23T04:53:14;22.57;;;10.20;;
86011;SDS011;76591;42.170;27.850;2024-03-23T04:55:41;15.60;;;7.67;;
86011;SDS011;76591;42.170;27.850;2024-03-23T04:58:07;12.27;;;7.43;;
86011;SDS011;76591;42.170;27.850;2024-03-23T05:00:33;12.27;;;5.77;;
86011;SDS011;76591;42.170;27.850;2024-03-23T05:02:59;15.27;;;6.20;;
86011;SDS011;76591;42.170;27.850;2024-03-23T05:05:24;13.23;;;6.70;;
86011;SDS011;76591;42.170;27.850;2024-03-23T05:07:50;14.37;;;7.03;;
86011;SDS011;76591;42.170;27.850;2024-03-23T05:10:15;16.17;;;7.17;;
86011;SDS011;76591;42.170;27.850;2024-03-23T05:12:41;21.40;;;8.63;;
86011;SDS011;76591;42.170;27.850;2024-03-23T05:15:07;23.87;;;9.50;;
86011;SDS011;76591;42.170;27.850;2024-03-23T05:17:33;27.43;;;12.17;;
86011;SDS011;76591;42.170;27.850;2024-03-23T05:19:59;24.53;;;12.10;;
86011;SDS011;76591;42.170;27.850;2024-03-23T05:22:25;33.75;;;12.00;;
86011;SDS011;76591;42.170;27.850;2024-03-23T05:24:52;47.80;;;17.40;;
86011;SDS011;76591;42.170;27.850;2024-03-23T05:27:18;61.20;;;19.95;;
86011;SDS011;76591;42.170;27.850;2024-03-23T05:29:44;40.20;;;14.88;;
86011;SDS011;76591;42.170;27.850;2024-03-23T05:32:09;13.82;;;8.15;;
86011;SDS011;76591;42.170;27.850;2024-03-23T05:34:35;7.57;;;4.07;;
86011;SDS011;76591;42.170;27.850;2024-03-23T05:37:00;6.28;;;3.53;;
86011;SDS011;76591;42.170;27.850;2024-03-23T05:39:26;9.48;;;3.28;;
86011;SDS011;76591;42.170;27.850;2024-03-23T05:41:52;8.90;;;4.00;;
86011;SDS011;76591;42.170;27.850;2024-03-23T05:44:18;8.40;;;4.63;;
86011;SDS011;76591;42.170;27.850;2024-03-23T05:46:43;6.65;;;4.15;;
86011;SDS011;76591;42.170;27.850;2024-03-23T05:49:14;7.00;;;3.35;;
86011;SDS011;76591;42.170;27.850;2024-03-23T05:51:40;6.15;;;3.53;;
86011;SDS011;76591;42.170;27.850;2024-03-23T05:54:06;6.57;;;3.42;;
86011;SDS011;76591;42.170;27.850;2024-03-23T05:56:31;7.07;;;3.92;;
86011;SDS011;76591;42.170;27.850;2024-03-23T05:58:57;6.35;;;4.13;;
86011;SDS011;76591;42.170;27.850;2024-03-23T06:01:22;6.53;;;3.95;;
86011;SDS011;76591;42.170;27.850;2024-03-23T06:03:48;9.18;;;4.80;;
86011;SDS011;76591;42.170;27.850;2024-03-23T06:06:14;9.07;;;4.95;;
86011;SDS011;76591;42.170;27.850;2024-03-23T06:08:39;10.20;;;5.55;;
86011;SDS011;76591;42.170;27.850;2024-03-23T06:11:05;7.25;;;4.07;;
86011;SDS011;76591;42.170;27.850;2024-03-23T06:13:32;5.95;;;3.45;;
86011;SDS011;76591;42.170;27.850;2024-03-23T06:15:59;5.53;;;3.13;;
86011;SDS011;76591;42.170;27.850;2024-03-23T06:18:27;4.78;;;2.58;;
86011;SDS011;76591;42.170;27.850;2024-03-23T06:20:53;6.10;;;2.70;;
86011;SDS011;76591;42.170;27.850;2024-03-23T06:23:19;4.43;;;2.58;;
86011;SDS011;76591;42.170;27.850;2024-03-23T06:25:45;16.98;;;7.25;;
86011;SDS011;76591;42.170;27.850;2024-03-23T06:28:12;13.02;;;5.45;;
86011;SDS011;76591;42.170;27.850;2024-03-23T06:30:37;15.38;;;5.43;;
86011;SDS011;76591;42.170;27.850;2024-03-23T06:33:03;15.98;;;7.25;;
86011;SDS011;76591;42.170;27.850;2024-03-23T06:35:30;11.90;;;6.18;;
86011;SDS011;76591;42.170;27.850;2024-03-23T06:37:56;9.80;;;4.25;;
86011;SDS011;76591;42.170;27.850;2024-03-23T06:40:23;8.98;;;4.30;;
86011;SDS011;76591;42.170;27.850;2024-03-23T06:42:49;6.03;;;3.78;;
86011;SDS011;76591;42.170;27.850;2024-03-23T06:45:15;10.32;;;5.13;;
86011;SDS011;76591;42.170;27.850;2024-03-23T06:47:42;9.48;;;3.70;;
86011;SDS011;76591;42.170;27.850;2024-03-23T06:50:07;8.00;;;3.30;;
86011;SDS011;76591;42.170;27.850;2024-03-23T06:52:35;6.30;;;2.78;;
86011;SDS011;76591;42.170;27.850;2024-03-23T06:55:01;4.43;;;2.75;;
86011;SDS011;76591;42.170;27.850;2024-03-23T06:57:29;3.92;;;2.05;;
86011;SDS011;76591;42.170;27.850;2024-03-23T06:59:54;3.20;;;2.17;;
86011;SDS011;76591;42.170;27.850;2024-03-23T07:02:20;3.80;;;1.75;;
86011;SDS011;76591;42.170;27.850;2024-03-23T07:04:45;17.15;;;2.78;;
86011;SDS011;76591;42.170;27.850;2024-03-23T07:07:11;4.40;;;2.90;;
86011;SDS011;76591;42.170;27.850;2024-03-23T07:09:37;4.78;;;2.45;;
86011;SDS011;76591;42.170;27.850;2024-03-23T07:12:03;6.30;;;3.35;;
86011;SDS011;76591;42.170;27.850;2024-03-23T07:14:29;8.02;;;3.15;;
86011;SDS011;76591;42.170;27.850;2024-03-23T07:16:55;7.10;;;2.42;;
86011;SDS011;76591;42.170;27.850;2024-03-23T07:19:20;3.85;;;2.05;;
86011;SDS011;76591;42.170;27.850;2024-03-23T07:21:46;3.03;;;1.73;;
86011;SDS011;76591;42.170;27.850;2024-03-23T07:24:13;2.45;;;1.50;;
86011;SDS011;76591;42.170;27.850;2024-03-23T07:26:38;2.65;;;1.77;;
86011;SDS011;76591;42.170;27.850;2024-03-23T07:29:04;2.78;;;1.48;;
86011;SDS011;76591;42.170;27.850;2024-03-23T07:31:31;4.00;;;2.20;;
86011;SDS011;76591;42.170;27.850;2024-03-23T07:33:57;2.65;;;1.52;;
86011;SDS011;76591;42.170;27.850;2024-03-23T07:36:22;3.42;;;1.80;;
86011;SDS011;76591;42.170;27.850;2024-03-23T07:38:48;4.15;;;2.15;;
86011;SDS011;76591;42.170;27.850;2024-03-23T07:41:18;4.50;;;2.13;;
86011;SDS011;76591;42.170;27.850;2024-03-23T07:43:44;4.30;;;2.05;;
86011;SDS011;76591;42.170;27.850;2024-03-23T07:46:11;2.80;;;1.70;;
86011;SDS011;76591;42.170;27.850;2024-03-23T07:48:37;2.65;;;1.63;;
86011;SDS011;76591;42.170;27.850;2024-03-23T07:53:32;7.55;;;1.83;;
86011;SDS011;76591;42.170;27.850;2024-03-23T07:56:03;7.68;;;2.05;;
86011;SDS011;76591;42.170;27.850;2024-03-23T07:58:29;2.45;;;1.70;;
86011;SDS011;76591;42.170;27.850;2024-03-23T08:00:55;2.78;;;1.77;;
86011;SDS011;76591;42.170;27.850;2024-03-23T08:03:22;2.95;;;1.92;;
86011;SDS011;76591;42.170;27.850;2024-03-23T08:05:48;7.35;;;1.80;;
86011;SDS011;76591;42.170;27.850;2024-03-23T08:08:13;2.28;;;1.70;;
86011;SDS011;76591;42.170;27.850;2024-03-23T08:10:49;3.22;;;1.55;;
86011;SDS011;76591;42.170;27.850;2024-03-23T08:13:15;2.00;;;1.52;;
86011;SDS011;76591;42.170;27.850;2024-03-23T08:15:41;2.40;;;1.55;;
86011;SDS011;76591;42.170;27.850;2024-03-23T08:18:07;3.97;;;1.88;;
86011;SDS011;76591;42.170;27.850;2024-03-23T08:20:32;2.10;;;1.60;;
86011;SDS011;76591;42.170;27.850;2024-03-23T08:22:58;4.47;;;2.08;;
86011;SDS011;76591;42.170;27.850;2024-03-23T08:25:24;2.00;;;1.65;;
86011;SDS011;76591;42.170;27.850;2024-03-23T08:27:50;3.13;;;1.60;;
86011;SDS011;76591;42.170;27.850;2024-03-23T08:30:16;2.28;;;1.55;;
86011;SDS011;76591;42.170;27.850;2024-03-23T08:32:42;2.55;;;1.45;;
86011;SDS011;76591;42.170;27.850;2024-03-23T08:35:07;3.47;;;1.88;;
86011;SDS011;76591;42.170;27.850;2024-03-23T08:37:34;2.53;;;1.60;;
86011;SDS011;76591;42.170;27.850;2024-03-23T08:40:00;3.28;;;2.03;;
86011;SDS011;76591;42.170;27.850;2024-03-23T08:42:26;3.00;;;1.25;;
86011;SDS011;76591;42.170;27.850;2024-03-23T08:44:51;2.50;;;1.50;;
86011;SDS011;76591;42.170;27.850;2024-03-23T08:47:17;2.08;;;1.45;;
86011;SDS011;76591;42.170;27.850;2024-03-23T08:49:44;1.50;;;1.30;;
86011;SDS011;76591;42.170;27.850;2024-03-23T08:52:10;3.28;;;1.80;;
86011;SDS011;76591;42.170;27.850;2024-03-23T08:54:35;2.28;;;1.60;;
86011;SDS011;76591;42.170;27.850;2024-03-23T08:57:01;3.35;;;2.13;;
86011;SDS011;76591;42.170;27.850;2024-03-23T08:59:27;3.08;;;1.55;;
86011;SDS011;76591;42.170;27.850;2024-03-23T09:01:52;4.03;;;1.80;;
86011;SDS011;76591;42.170;27.850;2024-03-23T09:04:19;3.50;;;1.80;;
86011;SDS011;76591;42.170;27.850;2024-03-23T09:06:44;3.80;;;2.05;;
86011;SDS011;76591;42.170;27.850;2024-03-23T09:09:10;4.13;;;2.00;;
86011;SDS011;76591;42.170;27.850;2024-03-23T09:11:36;4.22;;;2.00;;
86011;SDS011;76591;42.170;27.850;2024-03-23T09:14:02;4.47;;;2.70;;
86011;SDS011;76591;42.170;27.850;2024-03-23T09:16:28;2.55;;;1.80;;
86011;SDS011;76591;42.170;27.850;2024-03-23T09:18:54;2.78;;;1.58;;
86011;SDS011;76591;42.170;27.850;2024-03-23T09:21:20;3.72;;;2.15;;
86011;SDS011;76591;42.170;27.850;2024-03-23T09:23:46;2.67;;;1.77;;
86011;SDS011;76591;42.170;27.850;2024-03-23T09:26:12;3.88;;;2.33;;
86011;SDS011;76591;42.170;27.850;2024-03-23T09:28:38;3.03;;;1.83;;
86011;SDS011;76591;42.170;27.850;2024-03-23T09:31:04;2.08;;;1.30;;
86011;SDS011;76591;42.170;27.850;2024-03-23T09:33:30;4.93;;;1.92;;
86011;SDS011;76591;42.170;27.850;2024-03-23T09:35:56;3.13;;;1.90;;
86011;SDS011;76591;42.170;27.850;2024-03-23T09:38:22;3.80;;;1.67;;
86011;SDS011;76591;42.170;27.850;2024-03-23T09:40:50;2.35;;;1.52;;
86011;SDS011;76591;42.170;27.850;2024-03-23T09:43:18;5.45;;;2.22;;
86011;SDS011;76591;42.170;27.850;2024-03-23T09:45:44;3.45;;;2.15;;
86011;SDS011;76591;42.170;27.850;2024-03-23T09:48:11;3.42;;;1.40;;
86011;SDS011;76591;42.170;27.850;2024-03-23T09:50:43;5.55;;;1.60;;
86011;SDS011;76591;42.170;27.850;2024-03-23T09:53:10;3.22;;;1.48;;
86011;SDS011;76591;42.170;27.850;2024-03-23T09:55:37;3.90;;;1.70;;
86011;SDS011;76591;42.170;27.850;2024-03-23T09:58:04;4.10;;;1.80;;
86011;SDS011;76591;42.170;27.850;2024-03-23T10:00:33;3.78;;;2.40;;
86011;SDS011;76591;42.170;27.850;2024-03-23T10:03:02;5.00;;;2.45;;
86011;SDS011;76591;42.170;27.850;2024-03-23T10:05:28;3.38;;;2.10;;
86011;SDS011;76591;42.170;27.850;2024-03-23T10:07:56;4.40;;;2.05;;
86011;SDS011;76591;42.170;27.850;2024-03-23T10:10:22;2.17;;;1.55;;
86011;SDS011;76591;42.170;27.850;2024-03-23T10:12:50;1.70;;;1.30;;
86011;SDS011;76591;42.170;27.850;2024-03-23T10:15:27;3.95;;;1.90;;
86011;SDS011;76591;42.170;27.850;2024-03-23T10:17:52;2.92;;;1.45;;
86011;SDS011;76591;42.170;27.850;2024-03-23T10:20:19;3.35;;;1.75;;
86011;SDS011;76591;42.170;27.850;2024-03-23T10:22:49;2.22;;;1.67;;
86011;SDS011;76591;42.170;27.850;2024-03-23T10:25:18;1.92;;;1.30;;
86011;SDS011;76591;42.170;27.850;2024-03-23T10:28:00;3.33;;;1.92;;
86011;SDS011;76591;42.170;27.850;2024-03-23T10:30:26;3.05;;;1.58;;
86011;SDS011;76591;42.170;27.850;2024-03-23T10:35:39;2.75;;;1.85;;
86011;SDS011;76591;42.170;27.850;2024-03-23T10:38:06;4.05;;;1.98;;
86011;SDS011;76591;42.170;27.850;2024-03-23T10:40:35;2.35;;;1.98;;
86011;SDS011;76591;42.170;27.850;2024-03-23T10:43:02;2.58;;;1.80;;
86011;SDS011;76591;42.170;27.850;2024-03-23T10:45:29;2.80;;;1.83;;
86011;SDS011;76591;42.170;27.850;2024-03-23T10:47:56;3.10;;;1.35;;
86011;SDS011;76591;42.170;27.850;2024-03-23T10:50:22;3.25;;;1.85;;
86011;SDS011;76591;42.170;27.850;2024-03-23T10:52:48;2.55;;;1.42;;
86011;SDS011;76591;42.170;27.850;2024-03-23T10:55:15;2.42;;;1.65;;
86011;SDS011;76591;42.170;27.850;2024-03-23T10:57:48;2.33;;;1.73;;
86011;SDS011;76591;42.170;27.850;2024-03-23T11:00:19;2.13;;;1.60;;
86011;SDS011;76591;42.170;27.850;2024-03-23T11:02:48;1.83;;;1.48;;
86011;SDS011;76591;42.170;27.850;2024-03-23T11:07:53;2.70;;;1.75;;
86011;SDS011;76591;42.170;27.850;2024-03-23T11:10:31;3.50;;;1.95;;
86011;SDS011;76591;42.170;27.850;2024-03-23T11:13:44;2.50;;;1.70;;
86011;SDS011;76591;42.170;27.850;2024-03-23T11:15:48;3.03;;;1.70;;
86011;SDS011;76591;42.170;27.850;2024-03-23T11:18:20;2.15;;;1.60;;
86011;SDS011;76591;42.170;27.850;2024-03-23T11:20:46;4.47;;;2.33;;
86011;SDS011;76591;42.170;27.850;2024-03-23T11:23:27;2.58;;;1.88;;
86011;SDS011;76591;42.170;27.850;2024-03-23T11:25:54;4.50;;;1.77;;
86011;SDS011;76591;42.170;27.850;2024-03-23T11:28:19;2.90;;;1.40;;
86011;SDS011;76591;42.170;27.850;2024-03-23T11:30:46;3.08;;;1.80;;
86011;SDS011;76591;42.170;27.850;2024-03-23T11:33:12;2.25;;;1.55;;
86011;SDS011;76591;42.170;27.850;2024-03-23T11:35:38;8.15;;;1.50;;
86011;SDS011;76591;42.170;27.850;2024-03-23T11:38:08;4.20;;;1.77;;
86011;SDS011;76591;42.170;27.850;2024-03-23T11:40:35;2.45;;;1.70;;
86011;SDS011;76591;42.170;27.850;2024-03-23T11:43:03;6.57;;;2.03;;
86011;SDS011;76591;42.170;27.850;2024-03-23T11:45:37;2.17;;;1.52;;
86011;SDS011;76591;42.170;27.850;2024-03-23T11:48:09;2.00;;;1.63;;
86011;SDS011;76591;42.170;27.850;2024-03-23T11:50:39;4.38;;;2.05;;
86011;SDS011;76591;42.170;27.850;2024-03-23T11:53:07;3.58;;;2.28;;
86011;SDS011;76591;42.170;27.850;2024-03-23T11:55:43;1.95;;;1.30;;
86011;SDS011;76591;42.170;27.850;2024-03-23T11:58:10;2.92;;;1.63;;
86011;SDS011;76591;42.170;27.850;2024-03-23T12:00:36;3.22;;;1.60;;
86011;SDS011;76591;42.170;27.850;2024-03-23T12:03:02;4.40;;;2.00;;
86011;SDS011;76591;42.170;27.850;2024-03-23T12:05:29;4.28;;;2.00;;
86011;SDS011;76591;42.170;27.850;2024-03-23T12:07:55;3.88;;;2.17;;
86011;SDS011;76591;42.170;27.850;2024-03-23T12:10:40;2.92;;;2.03;;
86011;SDS011;76591;42.170;27.850;2024-03-23T12:13:05;5.03;;;2.00;;
86011;SDS011;76591;42.170;27.850;2024-03-23T12:15:31;2.50;;;1.55;;
86011;SDS011;76591;42.170;27.850;2024-03-23T12:18:09;2.55;;;2.03;;
86011;SDS011;76591;42.170;27.850;2024-03-23T12:20:38;4.30;;;1.85;;
86011;SDS011;76591;42.170;27.850;2024-03-23T12:23:11;3.15;;;1.83;;
86011;SDS011;76591;42.170;27.850;2024-03-23T12:25:38;4.15;;;2.38;;
86011;SDS011;76591;42.170;27.850;2024-03-23T12:28:05;3.20;;;1.98;;
86011;SDS011;76591;42.170;27.850;2024-03-23T12:30:32;4.20;;;1.75;;
86011;SDS011;76591;42.170;27.850;2024-03-23T12:32:58;2.80;;;1.98;;
86011;SDS011;76591;42.170;27.850;2024-03-23T12:35:24;4.43;;;2.22;;
86011;SDS011;76591;42.170;27.850;2024-03-23T12:37:50;5.03;;;2.83;;
86011;SDS011;76591;42.170;27.850;2024-03-23T12:40:16;5.78;;;2.22;;
86011;SDS011;76591;42.170;27.850;2024-03-23T12:42:41;5.00;;;2.30;;
86011;SDS011;76591;42.170;27.850;2024-03-23T12:45:07;3.05;;;1.75;;
86011;SDS011;76591;42.170;27.850;2024-03-23T12:47:33;3.75;;;1.58;;
86011;SDS011;76591;42.170;27.850;2024-03-23T12:49:58;5.75;;;2.30;;
86011;SDS011;76591;42.170;27.850;2024-03-23T12:52:24;2.20;;;1.95;;
86011;SDS011;76591;42.170;27.850;2024-03-23T12:54:54;2.38;;;1.40;;
86011;SDS011;76591;42.170;27.850;2024-03-23T12:57:23;2.60;;;1.55;;
86011;SDS011;76591;42.170;27.850;2024-03-23T12:59:50;3.05;;;1.45;;
86011;SDS011;76591;42.170;27.850;2024-03-23T13:02:17;4.53;;;1.90;;
86011;SDS011;76591;42.170;27.850;2024-03-23T13:04:44;4.05;;;2.00;;
86011;SDS011;76591;42.170;27.850;2024-03-23T13:07:10;6.63;;;2.75;;
86011;SDS011;76591;42.170;27.850;2024-03-23T13:09:36;7.75;;;4.65;;
86011;SDS011;76591;42.170;27.850;2024-03-23T13:12:02;4.20;;;2.55;;
86011;SDS011;76591;42.170;27.850;2024-03-23T13:14:28;13.07;;;3.97;;
86011;SDS011;76591;42.170;27.850;2024-03-23T13:16:53;11.30;;;5.30;;
86011;SDS011;76591;42.170;27.850;2024-03-23T13:19:19;14.60;;;6.35;;
86011;SDS011;76591;42.170;27.850;2024-03-23T13:21:45;7.95;;;4.13;;
86011;SDS011;76591;42.170;27.850;2024-03-23T13:24:10;7.85;;;3.95;;
86011;SDS011;76591;42.170;27.850;2024-03-23T13:26:36;17.95;;;6.22;;
86011;SDS011;76591;42.170;27.850;2024-03-23T13:29:02;12.38;;;5.45;;
86011;SDS011;76591;42.170;27.850;2024-03-23T13:31:27;14.50;;;5.32;;
86011;SDS011;76591;42.170;27.850;2024-03-23T13:33:53;27.23;;;8.52;;
86011;SDS011;76591;42.170;27.850;2024-03-23T13:36:19;6.18;;;3.53;;
86011;SDS011;76591;42.170;27.850;2024-03-23T13:38:44;13.07;;;5.63;;
86011;SDS011;76591;42.170;27.850;2024-03-23T13:41:10;6.50;;;4.05;;
86011;SDS011;76591;42.170;27.850;2024-03-23T13:43:37;6.32;;;3.10;;
86011;SDS011;76591;42.170;27.850;2024-03-23T13:46:03;4.35;;;2.47;;
86011;SDS011;76591;42.170;27.850;2024-03-23T13:48:29;6.97;;;3.10;;
86011;SDS011;76591;42.170;27.850;2024-03-23T13:51:04;6.80;;;3.80;;
86011;SDS011;76591;42.170;27.850;2024-03-23T13:53:30;4.93;;;2.80;;
86011;SDS011;76591;42.170;27.850;2024-03-23T13:55:59;3.35;;;2.08;;
86011;SDS011;76591;42.170;27.850;2024-03-23T13:58:25;3.78;;;2.20;;
86011;SDS011;76591;42.170;27.850;2024-03-23T14:00:56;4.65;;;2.53;;
86011;SDS011;76591;42.170;27.850;2024-03-23T14:03:23;3.67;;;2.63;;
86011;SDS011;76591;42.170;27.850;2024-03-23T14:05:48;3.17;;;1.75;;
86011;SDS011;76591;42.170;27.850;2024-03-23T14:08:14;3.78;;;2.03;;
86011;SDS011;76591;42.170;27.850;2024-03-23T14:10:40;4.32;;;2.00;;
86011;SDS011;76591;42.170;27.850;2024-03-23T14:13:06;4.10;;;2.28;;
86011;SDS011;76591;42.170;27.850;2024-03-23T14:15:32;3.38;;;1.85;;
86011;SDS011;76591;42.170;27.850;2024-03-23T14:17:58;3.95;;;2.17;;
86011;SDS011;76591;42.170;27.850;2024-03-23T14:20:24;4.80;;;1.88;;
86011;SDS011;76591;42.170;27.850;2024-03-23T14:22:51;4.07;;;2.03;;
86011;SDS011;76591;42.170;27.850;2024-03-23T14:25:17;4.13;;;1.90;;
86011;SDS011;76591;42.170;27.850;2024-03-23T14:27:46;4.35;;;2.08;;
86011;SDS011;76591;42.170;27.850;2024-03-23T14:30:12;3.45;;;1.77;;
86011;SDS011;76591;42.170;27.850;2024-03-23T14:32:39;4.90;;;2.00;;
86011;SDS011;76591;42.170;27.850;2024-03-23T14:35:05;2.17;;;1.90;;
86011;SDS011;76591;42.170;27.850;2024-03-23T14:37:32;6.13;;;1.92;;
86011;SDS011;76591;42.170;27.850;2024-03-23T14:39:58;3.70;;;2.10;;
86011;SDS011;76591;42.170;27.850;2024-03-23T14:42:24;4.40;;;2.10;;
86011;SDS011;76591;42.170;27.850;2024-03-23T14:44:53;2.60;;;1.95;;
86011;SDS011;76591;42.170;27.850;2024-03-23T14:47:19;2.33;;;1.60;;
86011;SDS011;76591;42.170;27.850;2024-03-23T14:49:46;2.58;;;1.88;;
86011;SDS011;76591;42.170;27.850;2024-03-23T14:52:19;7.68;;;2.30;;
86011;SDS011;76591;42.170;27.850;2024-03-23T14:54:45;4.65;;;2.25;;
86011;SDS011;76591;42.170;27.850;2024-03-23T14:57:11;5.07;;;2.30;;
86011;SDS011;76591;42.170;27.850;2024-03-23T14:59:37;3.95;;;1.90;;
86011;SDS011;76591;42.170;27.850;2024-03-23T15:02:04;5.25;;;2.08;;
86011;SDS011;76591;42.170;27.850;2024-03-23T15:04:30;4.95;;;2.58;;
86011;SDS011;76591;42.170;27.850;2024-03-23T15:06:55;3.83;;;2.55;;
86011;SDS011;76591;42.170;27.850;2024-03-23T15:09:21;4.00;;;2.13;;
86011;SDS011;76591;42.170;27.850;2024-03-23T15:11:47;5.03;;;2.05;;
86011;SDS011;76591;42.170;27.850;2024-03-23T15:14:12;2.90;;;1.98;;
86011;SDS011;76591;42.170;27.850;2024-03-23T15:16:38;3.83;;;1.75;;
86011;SDS011;76591;42.170;27.850;2024-03-23T15:19:04;3.05;;;1.88;;
86011;SDS011;76591;42.170;27.850;2024-03-23T15:21:33;5.82;;;1.80;;
86011;SDS011;76591;42.170;27.850;2024-03-23T15:23:59;1.88;;;1.45;;
86011;SDS011;76591;42.170;27.850;2024-03-23T15:26:25;3.55;;;2.08;;